Centennial, Wyoming
Current Conditions -  °F | °C
As of 5:53 AM on Friday 24 Oct 2014 (Local Time) from KLAR Reporting Station
Clear Clear  
Wind Chill: 45°   Ceiling: Unl
Heat Index: 49°   Visibility: 10mi
Dew Point: 26°   Wind: 10mph
Humidity: 41%   Direction: 210°SSW
Pressure: 30.22"   Gusts: NA
Location:  41.3°N, 106.14°W
Report Text: KLAR 241153Z AUTO 21009KT 10SM CLR 09/M03 A3022 RMK AO2 SLP157 T00941033 10111 20083 53000
Loading
Personal Weather Stations






























Interactive Weather Map
Tropical Storm Tracking
New forecast layout! Learn more

10-Day Weather Forecast

Advertisements
Track Severe Weather on mobile